Terminal Aerodrome Forecast
Issued by NWS

Home | Current Version | Previous Version | Text Only | Print | Product List | Glossary On
Versions: 1 2 3 4 5 6 7 8 9 10 11 12 13 14 15 16 17 18 19
000
FTAK31 PAFA 282333
TAFAQT
TAF
PAQT 282333Z 2900/2924 32009KT P6SM -RA OVC007
     FM290300 36009KT 2SM BR OVC004
     FM291800 07009KT P6SM OVC003
     FM292200 07012G18KT P6SM BKN007=

USA.gov is the U.S. government's official web portal to all federal, state and local government web resources and services.